sensor_id;sensor_type;location;lat;lon;timestamp;pressure;altitude;pressure_sealevel;temperature;humidity
39793;BME280;26080;42.264;24.536;2022-08-02T00:00:57;98973.97;;;18.82;100.00
39793;BME280;26080;42.264;24.536;2022-08-02T00:03:23;98971.00;;;18.75;100.00
39793;BME280;26080;42.264;24.536;2022-08-02T00:05:48;98978.38;;;18.72;100.00
39793;BME280;26080;42.264;24.536;2022-08-02T00:08:14;98980.59;;;18.67;100.00
39793;BME280;26080;42.264;24.536;2022-08-02T00:10:39;98980.38;;;18.58;100.00
39793;BME280;26080;42.264;24.536;2022-08-02T00:13:05;98979.09;;;18.53;100.00
39793;BME280;26080;42.264;24.536;2022-08-02T00:15:30;98979.72;;;18.45;100.00
39793;BME280;26080;42.264;24.536;2022-08-02T00:17:55;98979.28;;;18.40;100.00
39793;BME280;26080;42.264;24.536;2022-08-02T00:20:21;98979.09;;;18.32;100.00
39793;BME280;26080;42.264;24.536;2022-08-02T00:22:46;98977.66;;;18.28;100.00
39793;BME280;26080;42.264;24.536;2022-08-02T00:25:12;98966.69;;;18.12;100.00
39793;BME280;26080;42.264;24.536;2022-08-02T00:27:37;98962.84;;;18.04;100.00
39793;BME280;26080;42.264;24.536;2022-08-02T00:30:03;98956.53;;;17.96;100.00
39793;BME280;26080;42.264;24.536;2022-08-02T00:32:29;98981.38;;;18.04;100.00
39793;BME280;26080;42.264;24.536;2022-08-02T00:34:54;98984.75;;;18.06;100.00
39793;BME280;26080;42.264;24.536;2022-08-02T00:37:19;98986.56;;;18.06;100.00
39793;BME280;26080;42.264;24.536;2022-08-02T00:39:45;98982.38;;;18.03;100.00
39793;BME280;26080;42.264;24.536;2022-08-02T00:42:13;98979.13;;;18.00;100.00
39793;BME280;26080;42.264;24.536;2022-08-02T00:44:39;98966.50;;;17.92;100.00
39793;BME280;26080;42.264;24.536;2022-08-02T00:47:05;98970.38;;;17.88;100.00
39793;BME280;26080;42.264;24.536;2022-08-02T00:49:30;98968.63;;;17.77;100.00
39793;BME280;26080;42.264;24.536;2022-08-02T00:51:56;98971.91;;;17.70;100.00
39793;BME280;26080;42.264;24.536;2022-08-02T00:54:21;98970.94;;;17.60;100.00
39793;BME280;26080;42.264;24.536;2022-08-02T00:56:47;98969.00;;;17.62;100.00
39793;BME280;26080;42.264;24.536;2022-08-02T00:59:13;98959.25;;;17.62;100.00
39793;BME280;26080;42.264;24.536;2022-08-02T01:01:38;98970.41;;;17.66;100.00
39793;BME280;26080;42.264;24.536;2022-08-02T01:04:09;98959.97;;;17.64;100.00
39793;BME280;26080;42.264;24.536;2022-08-02T01:06:36;98970.81;;;17.61;100.00
39793;BME280;26080;42.264;24.536;2022-08-02T01:09:04;98956.38;;;17.54;100.00
39793;BME280;26080;42.264;24.536;2022-08-02T01:11:30;98912.66;;;17.28;100.00
39793;BME280;26080;42.264;24.536;2022-08-02T01:13:58;98952.69;;;17.45;100.00
39793;BME280;26080;42.264;24.536;2022-08-02T01:16:27;98954.69;;;17.53;100.00
39793;BME280;26080;42.264;24.536;2022-08-02T01:19:02;98959.63;;;17.58;100.00
39793;BME280;26080;42.264;24.536;2022-08-02T01:21:46;98963.13;;;17.58;100.00
39793;BME280;26080;42.264;24.536;2022-08-02T01:24:23;98962.03;;;17.61;100.00
39793;BME280;26080;42.264;24.536;2022-08-02T01:27:15;98953.38;;;17.59;100.00
39793;BME280;26080;42.264;24.536;2022-08-02T01:29:47;98961.78;;;17.53;100.00
39793;BME280;26080;42.264;24.536;2022-08-02T01:32:23;98956.63;;;17.51;100.00
39793;BME280;26080;42.264;24.536;2022-08-02T01:34:51;98956.03;;;17.47;100.00
39793;BME280;26080;42.264;24.536;2022-08-02T01:37:27;98954.13;;;17.38;100.00
39793;BME280;26080;42.264;24.536;2022-08-02T01:40:00;98915.47;;;17.15;100.00
39793;BME280;26080;42.264;24.536;2022-08-02T01:42:29;98942.50;;;17.30;100.00
39793;BME280;26080;42.264;24.536;2022-08-02T01:44:55;98914.00;;;17.11;100.00
39793;BME280;26080;42.264;24.536;2022-08-02T01:47:26;98939.22;;;17.26;100.00
39793;BME280;26080;42.264;24.536;2022-08-02T01:49:53;98939.47;;;17.34;100.00
39793;BME280;26080;42.264;24.536;2022-08-02T01:52:22;98941.84;;;17.37;100.00
39793;BME280;26080;42.264;24.536;2022-08-02T01:57:23;98943.31;;;17.41;100.00
39793;BME280;26080;42.264;24.536;2022-08-02T01:59:52;98932.72;;;17.41;100.00
39793;BME280;26080;42.264;24.536;2022-08-02T02:02:20;98928.16;;;17.43;100.00
39793;BME280;26080;42.264;24.536;2022-08-02T02:04:48;98928.84;;;17.45;100.00
39793;BME280;26080;42.264;24.536;2022-08-02T02:07:15;98935.31;;;17.53;100.00
39793;BME280;26080;42.264;24.536;2022-08-02T02:09:43;98937.22;;;17.73;100.00
39793;BME280;26080;42.264;24.536;2022-08-02T02:12:11;98925.56;;;17.96;100.00
39793;BME280;26080;42.264;24.536;2022-08-02T02:14:38;98905.41;;;17.84;100.00
39793;BME280;26080;42.264;24.536;2022-08-02T02:17:05;98913.53;;;17.92;100.00
39793;BME280;26080;42.264;24.536;2022-08-02T02:19:33;98928.84;;;17.89;100.00
39793;BME280;26080;42.264;24.536;2022-08-02T02:22:00;98933.47;;;17.75;100.00
39793;BME280;26080;42.264;24.536;2022-08-02T02:24:26;98938.63;;;17.77;100.00
39793;BME280;26080;42.264;24.536;2022-08-02T02:26:52;98924.25;;;17.70;100.00
39793;BME280;26080;42.264;24.536;2022-08-02T02:29:19;98941.63;;;17.84;100.00
39793;BME280;26080;42.264;24.536;2022-08-02T02:31:47;98943.09;;;17.76;100.00
39793;BME280;26080;42.264;24.536;2022-08-02T02:34:16;98945.16;;;17.73;100.00
39793;BME280;26080;42.264;24.536;2022-08-02T02:36:47;98945.63;;;17.78;100.00
39793;BME280;26080;42.264;24.536;2022-08-02T02:39:14;98938.19;;;17.72;100.00
39793;BME280;26080;42.264;24.536;2022-08-02T02:41:41;98932.31;;;17.68;100.00
39793;BME280;26080;42.264;24.536;2022-08-02T02:44:10;98938.31;;;17.59;100.00
39793;BME280;26080;42.264;24.536;2022-08-02T02:47:12;98935.53;;;17.61;100.00
39793;BME280;26080;42.264;24.536;2022-08-02T02:49:39;98929.88;;;17.54;100.00
39793;BME280;26080;42.264;24.536;2022-08-02T02:52:05;98909.38;;;17.35;100.00
39793;BME280;26080;42.264;24.536;2022-08-02T02:54:33;98939.44;;;17.45;100.00
39793;BME280;26080;42.264;24.536;2022-08-02T02:56:59;98935.47;;;17.40;100.00
39793;BME280;26080;42.264;24.536;2022-08-02T02:59:25;98944.03;;;17.43;100.00
39793;BME280;26080;42.264;24.536;2022-08-02T03:01:52;98937.78;;;17.33;100.00
39793;BME280;26080;42.264;24.536;2022-08-02T03:04:19;98950.88;;;17.35;100.00
39793;BME280;26080;42.264;24.536;2022-08-02T03:06:45;98908.97;;;17.08;100.00
39793;BME280;26080;42.264;24.536;2022-08-02T03:09:11;98943.06;;;17.33;100.00
39793;BME280;26080;42.264;24.536;2022-08-02T03:11:38;98940.19;;;17.36;100.00
39793;BME280;26080;42.264;24.536;2022-08-02T03:14:07;98943.53;;;17.38;100.00
39793;BME280;26080;42.264;24.536;2022-08-02T03:16:33;98949.81;;;17.37;100.00
39793;BME280;26080;42.264;24.536;2022-08-02T03:19:05;98928.78;;;17.25;100.00
39793;BME280;26080;42.264;24.536;2022-08-02T03:21:31;98948.13;;;17.36;100.00
39793;BME280;26080;42.264;24.536;2022-08-02T03:23:56;98948.13;;;17.36;100.00
39793;BME280;26080;42.264;24.536;2022-08-02T03:26:22;98926.50;;;17.20;100.00
39793;BME280;26080;42.264;24.536;2022-08-02T03:28:47;98950.88;;;17.35;100.00
39793;BME280;26080;42.264;24.536;2022-08-02T03:31:13;98948.13;;;17.36;100.00
39793;BME280;26080;42.264;24.536;2022-08-02T03:33:39;98933.00;;;17.27;100.00
39793;BME280;26080;42.264;24.536;2022-08-02T03:36:09;98953.41;;;17.36;100.00
39793;BME280;26080;42.264;24.536;2022-08-02T03:38:35;98954.00;;;17.40;100.00
39793;BME280;26080;42.264;24.536;2022-08-02T03:41:01;98951.34;;;17.40;100.00
39793;BME280;26080;42.264;24.536;2022-08-02T03:43:28;98952.94;;;17.42;100.00
39793;BME280;26080;42.264;24.536;2022-08-02T03:45:55;98959.41;;;17.50;100.00
39793;BME280;26080;42.264;24.536;2022-08-02T03:48:22;98956.63;;;17.94;100.00
39793;BME280;26080;42.264;24.536;2022-08-02T03:50:49;98948.19;;;18.93;100.00
39793;BME280;26080;42.264;24.536;2022-08-02T03:53:16;98970.75;;;20.26;96.69
39793;BME280;26080;42.264;24.536;2022-08-02T03:55:43;98949.50;;;21.20;89.48
39793;BME280;26080;42.264;24.536;2022-08-02T03:58:15;98974.75;;;22.06;84.26
39793;BME280;26080;42.264;24.536;2022-08-02T04:00:41;98971.88;;;22.87;79.98
39793;BME280;26080;42.264;24.536;2022-08-02T04:03:06;98969.38;;;23.62;76.15
39793;BME280;26080;42.264;24.536;2022-08-02T04:05:32;98980.84;;;24.54;71.71
39793;BME280;26080;42.264;24.536;2022-08-02T04:07:57;98981.75;;;25.09;66.93
39793;BME280;26080;42.264;24.536;2022-08-02T04:10:23;98979.56;;;25.83;64.98
39793;BME280;26080;42.264;24.536;2022-08-02T04:12:48;98972.41;;;26.21;62.12
39793;BME280;26080;42.264;24.536;2022-08-02T04:15:14;98965.31;;;26.96;60.69
39793;BME280;26080;42.264;24.536;2022-08-02T04:17:49;98971.81;;;27.82;56.29
39793;BME280;26080;42.264;24.536;2022-08-02T04:20:22;98981.25;;;28.56;53.97
39793;BME280;26080;42.264;24.536;2022-08-02T04:22:50;98971.19;;;28.44;52.00
39793;BME280;26080;42.264;24.536;2022-08-02T04:25:19;98972.63;;;28.40;50.12
39793;BME280;26080;42.264;24.536;2022-08-02T04:27:45;98976.41;;;27.15;54.86
39793;BME280;26080;42.264;24.536;2022-08-02T04:30:11;98970.31;;;26.69;55.80
39793;BME280;26080;42.264;24.536;2022-08-02T04:32:38;98970.91;;;26.42;58.03
39793;BME280;26080;42.264;24.536;2022-08-02T04:35:05;98972.19;;;26.08;58.07
39793;BME280;26080;42.264;24.536;2022-08-02T04:37:32;98973.28;;;25.60;60.25
39793;BME280;26080;42.264;24.536;2022-08-02T04:39:58;98967.84;;;25.45;61.81
39793;BME280;26080;42.264;24.536;2022-08-02T04:42:24;98957.84;;;24.75;63.80
39793;BME280;26080;42.264;24.536;2022-08-02T04:44:51;98976.47;;;25.63;61.70
39793;BME280;26080;42.264;24.536;2022-08-02T04:47:17;98969.91;;;25.66;62.02
39793;BME280;26080;42.264;24.536;2022-08-02T04:49:43;98973.59;;;25.34;64.38
39793;BME280;26080;42.264;24.536;2022-08-02T04:52:09;98955.47;;;25.75;61.49
39793;BME280;26080;42.264;24.536;2022-08-02T04:54:35;98978.25;;;25.79;61.31
39793;BME280;26080;42.264;24.536;2022-08-02T04:57:00;98979.13;;;25.72;63.24
39793;BME280;26080;42.264;24.536;2022-08-02T04:59:26;98988.91;;;26.71;58.40
39793;BME280;26080;42.264;24.536;2022-08-02T05:01:51;98986.38;;;27.36;56.40
39793;BME280;26080;42.264;24.536;2022-08-02T05:04:17;98965.25;;;26.89;55.06
39793;BME280;26080;42.264;24.536;2022-08-02T05:06:42;98988.84;;;26.64;56.83
39793;BME280;26080;42.264;24.536;2022-08-02T05:09:08;99000.25;;;26.81;57.80
39793;BME280;26080;42.264;24.536;2022-08-02T05:11:33;98990.03;;;26.62;56.98
39793;BME280;26080;42.264;24.536;2022-08-02T05:13:59;98978.44;;;25.78;60.43
39793;BME280;26080;42.264;24.536;2022-08-02T05:16:24;99011.16;;;25.18;63.29
39793;BME280;26080;42.264;24.536;2022-08-02T05:18:52;98993.72;;;24.58;66.37
39793;BME280;26080;42.264;24.536;2022-08-02T05:21:18;98997.03;;;24.28;66.61
39793;BME280;26080;42.264;24.536;2022-08-02T05:23:43;98988.63;;;23.98;68.98
39793;BME280;26080;42.264;24.536;2022-08-02T05:26:12;99003.53;;;24.09;68.75
39793;BME280;26080;42.264;24.536;2022-08-02T05:28:40;99004.91;;;24.29;67.49
39793;BME280;26080;42.264;24.536;2022-08-02T05:31:05;99008.94;;;24.58;67.29
39793;BME280;26080;42.264;24.536;2022-08-02T05:33:31;99009.28;;;24.46;65.22
39793;BME280;26080;42.264;24.536;2022-08-02T05:35:56;99006.59;;;24.46;65.94
39793;BME280;26080;42.264;24.536;2022-08-02T05:38:23;99005.59;;;24.39;65.01
39793;BME280;26080;42.264;24.536;2022-08-02T05:40:49;99006.44;;;24.40;66.26
39793;BME280;26080;42.264;24.536;2022-08-02T05:43:14;99010.94;;;24.31;67.44
39793;BME280;26080;42.264;24.536;2022-08-02T05:45:40;99005.72;;;24.21;65.86
39793;BME280;26080;42.264;24.536;2022-08-02T05:48:06;99006.56;;;24.14;62.92
39793;BME280;26080;42.264;24.536;2022-08-02T05:50:37;99007.72;;;24.11;65.27
39793;BME280;26080;42.264;24.536;2022-08-02T05:53:23;99007.22;;;24.16;66.39
39793;BME280;26080;42.264;24.536;2022-08-02T05:55:58;99011.56;;;24.17;67.06
39793;BME280;26080;42.264;24.536;2022-08-02T06:01:12;99000.84;;;23.92;68.55
39793;BME280;26080;42.264;24.536;2022-08-02T06:03:51;99010.53;;;23.93;68.74
39793;BME280;26080;42.264;24.536;2022-08-02T06:06:20;99011.56;;;24.09;69.39
39793;BME280;26080;42.264;24.536;2022-08-02T06:08:50;99010.25;;;24.13;67.56
39793;BME280;26080;42.264;24.536;2022-08-02T06:11:23;99016.94;;;24.17;69.43
39793;BME280;26080;42.264;24.536;2022-08-02T06:13:49;99014.28;;;24.33;69.04
39793;BME280;26080;42.264;24.536;2022-08-02T06:16:15;99019.31;;;24.36;66.13
39793;BME280;26080;42.264;24.536;2022-08-02T06:18:42;99014.63;;;24.46;66.91
39793;BME280;26080;42.264;24.536;2022-08-02T06:21:08;99012.97;;;24.54;67.41
39793;BME280;26080;42.264;24.536;2022-08-02T06:23:40;99022.28;;;24.66;67.99
39793;BME280;26080;42.264;24.536;2022-08-02T06:26:07;99013.56;;;24.80;66.33
39793;BME280;26080;42.264;24.536;2022-08-02T06:28:36;99022.09;;;24.92;66.68
39793;BME280;26080;42.264;24.536;2022-08-02T06:31:02;99025.63;;;25.00;69.33
39793;BME280;26080;42.264;24.536;2022-08-02T06:33:29;99024.56;;;25.18;68.80
39793;BME280;26080;42.264;24.536;2022-08-02T06:36:07;99019.31;;;25.32;68.20
39793;BME280;26080;42.264;24.536;2022-08-02T06:38:42;99015.78;;;25.40;65.36
39793;BME280;26080;42.264;24.536;2022-08-02T06:41:12;99017.25;;;25.51;65.35
39793;BME280;26080;42.264;24.536;2022-08-02T06:46:07;99008.81;;;25.62;63.58
39793;BME280;26080;42.264;24.536;2022-08-02T06:48:33;99010.16;;;25.66;62.47
39793;BME280;26080;42.264;24.536;2022-08-02T06:51:04;99012.13;;;25.72;59.62
39793;BME280;26080;42.264;24.536;2022-08-02T06:53:29;99005.91;;;25.80;59.69
39793;BME280;26080;42.264;24.536;2022-08-02T06:55:56;99004.00;;;25.88;59.87
39793;BME280;26080;42.264;24.536;2022-08-02T06:58:22;99004.59;;;25.98;57.45
39793;BME280;26080;42.264;24.536;2022-08-02T07:00:48;98984.19;;;25.89;60.21
39793;BME280;26080;42.264;24.536;2022-08-02T07:03:13;98989.34;;;25.99;60.00
39793;BME280;26080;42.264;24.536;2022-08-02T07:05:40;99001.63;;;26.16;61.57
39793;BME280;26080;42.264;24.536;2022-08-02T07:08:05;99000.97;;;26.14;57.12
39793;BME280;26080;42.264;24.536;2022-08-02T07:10:31;98996.38;;;26.23;58.42
39793;BME280;26080;42.264;24.536;2022-08-02T07:12:57;99005.81;;;26.42;62.62
39793;BME280;26080;42.264;24.536;2022-08-02T07:15:22;99004.59;;;26.44;57.04
39793;BME280;26080;42.264;24.536;2022-08-02T07:17:48;99006.47;;;26.44;51.03
39793;BME280;26080;42.264;24.536;2022-08-02T07:20:13;99002.63;;;26.61;56.58
39793;BME280;26080;42.264;24.536;2022-08-02T07:22:39;98999.56;;;26.64;56.88
39793;BME280;26080;42.264;24.536;2022-08-02T07:25:06;99003.50;;;26.76;53.40
39793;BME280;26080;42.264;24.536;2022-08-02T07:27:31;98999.03;;;26.83;50.77
39793;BME280;26080;42.264;24.536;2022-08-02T07:29:57;99005.16;;;26.92;49.64
39793;BME280;26080;42.264;24.536;2022-08-02T07:32:28;99007.47;;;26.95;51.23
39793;BME280;26080;42.264;24.536;2022-08-02T07:34:54;99006.22;;;27.06;52.87
39793;BME280;26080;42.264;24.536;2022-08-02T07:37:22;98997.78;;;27.09;50.01
39793;BME280;26080;42.264;24.536;2022-08-02T07:39:48;98997.91;;;27.15;50.84
39793;BME280;26080;42.264;24.536;2022-08-02T07:42:13;98985.47;;;27.14;49.78
39793;BME280;26080;42.264;24.536;2022-08-02T07:44:39;98995.06;;;27.38;52.03
39793;BME280;26080;42.264;24.536;2022-08-02T07:47:05;99001.19;;;27.47;51.36
39793;BME280;26080;42.264;24.536;2022-08-02T07:49:30;99012.84;;;27.54;51.84
39793;BME280;26080;42.264;24.536;2022-08-02T07:51:56;99002.03;;;27.48;48.79
39793;BME280;26080;42.264;24.536;2022-08-02T07:54:22;99004.25;;;27.59;48.02
39793;BME280;26080;42.264;24.536;2022-08-02T07:56:48;99003.78;;;27.55;47.77
39793;BME280;26080;42.264;24.536;2022-08-02T07:59:14;99004.63;;;27.70;47.05
39793;BME280;26080;42.264;24.536;2022-08-02T08:01:40;99015.69;;;27.82;49.90
39793;BME280;26080;42.264;24.536;2022-08-02T08:04:06;99009.78;;;27.87;48.13
39793;BME280;26080;42.264;24.536;2022-08-02T08:06:34;99013.28;;;27.87;45.93
39793;BME280;26080;42.264;24.536;2022-08-02T08:09:00;99013.19;;;28.17;42.24
39793;BME280;26080;42.264;24.536;2022-08-02T08:11:25;98982.59;;;28.03;45.34
39793;BME280;26080;42.264;24.536;2022-08-02T08:13:51;99011.03;;;28.27;41.89
39793;BME280;26080;42.264;24.536;2022-08-02T08:16:17;99010.00;;;28.28;41.98
39793;BME280;26080;42.264;24.536;2022-08-02T08:18:42;99010.66;;;28.30;41.21
39793;BME280;26080;42.264;24.536;2022-08-02T08:21:08;99012.78;;;28.20;40.94
39793;BME280;26080;42.264;24.536;2022-08-02T08:23:34;99007.28;;;28.07;43.09
39793;BME280;26080;42.264;24.536;2022-08-02T08:26:00;99010.16;;;28.05;44.69
39793;BME280;26080;42.264;24.536;2022-08-02T08:28:26;99014.00;;;28.17;45.74
39793;BME280;26080;42.264;24.536;2022-08-02T08:30:51;99014.94;;;28.24;43.60
39793;BME280;26080;42.264;24.536;2022-08-02T08:33:17;99008.78;;;28.30;44.12
39793;BME280;26080;42.264;24.536;2022-08-02T08:35:42;98997.63;;;28.33;45.39
39793;BME280;26080;42.264;24.536;2022-08-02T08:38:08;99000.50;;;28.53;47.49
39793;BME280;26080;42.264;24.536;2022-08-02T08:40:33;99012.06;;;28.75;49.17
39793;BME280;26080;42.264;24.536;2022-08-02T08:42:59;99012.31;;;28.80;45.78
39793;BME280;26080;42.264;24.536;2022-08-02T08:45:25;99015.06;;;28.87;45.91
39793;BME280;26080;42.264;24.536;2022-08-02T08:48:15;98978.47;;;28.78;43.41
39793;BME280;26080;42.264;24.536;2022-08-02T08:51:06;99016.44;;;29.04;45.74
39793;BME280;26080;42.264;24.536;2022-08-02T08:53:39;99014.19;;;29.08;46.87
39793;BME280;26080;42.264;24.536;2022-08-02T08:56:05;98998.59;;;29.03;45.17
39793;BME280;26080;42.264;24.536;2022-08-02T08:58:30;99006.72;;;29.10;44.04
39793;BME280;26080;42.264;24.536;2022-08-02T09:00:56;99010.25;;;29.10;44.89
39793;BME280;26080;42.264;24.536;2022-08-02T09:03:21;99005.72;;;29.17;43.32
39793;BME280;26080;42.264;24.536;2022-08-02T09:05:47;99012.78;;;29.18;44.55
39793;BME280;26080;42.264;24.536;2022-08-02T09:08:12;98974.81;;;29.13;41.79
39793;BME280;26080;42.264;24.536;2022-08-02T09:13:16;99003.34;;;29.36;44.05
39793;BME280;26080;42.264;24.536;2022-08-02T09:15:53;99007.53;;;29.45;42.09
39793;BME280;26080;42.264;24.536;2022-08-02T09:18:20;99004.47;;;29.48;41.63
39793;BME280;26080;42.264;24.536;2022-08-02T09:21:00;98988.81;;;29.37;41.39
39793;BME280;26080;42.264;24.536;2022-08-02T09:23:35;99010.19;;;29.38;39.58
39793;BME280;26080;42.264;24.536;2022-08-02T09:26:03;99005.34;;;29.20;40.15
39793;BME280;26080;42.264;24.536;2022-08-02T09:28:34;99000.25;;;29.04;43.45
39793;BME280;26080;42.264;24.536;2022-08-02T09:31:30;98998.28;;;29.19;42.98
39793;BME280;26080;42.264;24.536;2022-08-02T09:33:59;99003.72;;;29.33;41.83
39793;BME280;26080;42.264;24.536;2022-08-02T09:36:26;98985.47;;;29.28;43.39
39793;BME280;26080;42.264;24.536;2022-08-02T09:41:26;98993.00;;;29.46;46.84
39793;BME280;26080;42.264;24.536;2022-08-02T09:43:53;98985.19;;;29.58;44.23
39793;BME280;26080;42.264;24.536;2022-08-02T09:46:27;98988.59;;;29.79;40.37
39793;BME280;26080;42.264;24.536;2022-08-02T09:48:56;98988.38;;;29.74;37.89
39793;BME280;26080;42.264;24.536;2022-08-02T09:51:27;98990.00;;;29.69;38.26
39793;BME280;26080;42.264;24.536;2022-08-02T09:54:04;98987.94;;;29.64;42.09
39793;BME280;26080;42.264;24.536;2022-08-02T09:56:42;98984.41;;;29.70;43.40
39793;BME280;26080;42.264;24.536;2022-08-02T09:59:10;98981.75;;;29.77;40.70
39793;BME280;26080;42.264;24.536;2022-08-02T10:01:37;98976.59;;;29.89;40.54
39793;BME280;26080;42.264;24.536;2022-08-02T10:04:07;98974.88;;;29.88;40.64
39793;BME280;26080;42.264;24.536;2022-08-02T10:06:37;98981.34;;;30.00;41.82
39793;BME280;26080;42.264;24.536;2022-08-02T10:09:06;98974.53;;;30.04;42.27
39793;BME280;26080;42.264;24.536;2022-08-02T10:11:32;98979.56;;;30.20;42.49
39793;BME280;26080;42.264;24.536;2022-08-02T10:13:59;98982.03;;;30.28;38.80
39793;BME280;26080;42.264;24.536;2022-08-02T10:16:26;98977.09;;;30.32;40.09
39793;BME280;26080;42.264;24.536;2022-08-02T10:18:54;98979.78;;;30.45;38.60
39793;BME280;26080;42.264;24.536;2022-08-02T10:22:08;98983.09;;;30.41;42.12
39793;BME280;26080;42.264;24.536;2022-08-02T10:24:37;98979.78;;;30.38;41.58
39793;BME280;26080;42.264;24.536;2022-08-02T10:27:06;98975.84;;;30.48;39.42
39793;BME280;26080;42.264;24.536;2022-08-02T10:29:36;98976.25;;;30.51;39.15
39793;BME280;26080;42.264;24.536;2022-08-02T10:32:08;98968.75;;;30.60;40.72
39793;BME280;26080;42.264;24.536;2022-08-02T10:35:03;98971.25;;;30.61;40.43
39793;BME280;26080;42.264;24.536;2022-08-02T10:37:30;98977.94;;;30.65;36.71
39793;BME280;26080;42.264;24.536;2022-08-02T10:39:57;98967.50;;;30.56;37.24
39793;BME280;26080;42.264;24.536;2022-08-02T10:42:43;98971.25;;;30.61;37.39
39793;BME280;26080;42.264;24.536;2022-08-02T10:45:10;98973.78;;;30.63;36.98
39793;BME280;26080;42.264;24.536;2022-08-02T10:47:36;98959.81;;;30.59;38.52
39793;BME280;26080;42.264;24.536;2022-08-02T10:50:02;98964.19;;;30.67;41.52
39793;BME280;26080;42.264;24.536;2022-08-02T10:52:31;98962.53;;;30.73;39.70
39793;BME280;26080;42.264;24.536;2022-08-02T10:55:01;98969.59;;;30.80;39.26
39793;BME280;26080;42.264;24.536;2022-08-02T10:57:31;98936.94;;;30.62;39.67
39793;BME280;26080;42.264;24.536;2022-08-02T11:00:26;98959.16;;;30.84;38.79
39793;BME280;26080;42.264;24.536;2022-08-02T11:02:52;98961.25;;;30.88;38.48
39793;BME280;26080;42.264;24.536;2022-08-02T11:05:29;98960.25;;;30.76;37.51
39793;BME280;26080;42.264;24.536;2022-08-02T11:07:55;98951.28;;;30.89;37.77
39793;BME280;26080;42.264;24.536;2022-08-02T11:10:31;98949.59;;;31.01;36.90
39793;BME280;26080;42.264;24.536;2022-08-02T11:15:24;98932.72;;;31.12;38.76
39793;BME280;26080;42.264;24.536;2022-08-02T11:17:57;98944.13;;;31.28;38.36
39793;BME280;26080;42.264;24.536;2022-08-02T11:20:26;98941.63;;;31.26;38.23
39793;BME280;26080;42.264;24.536;2022-08-02T11:22:53;98938.59;;;31.47;35.80
39793;BME280;26080;42.264;24.536;2022-08-02T11:30:18;98916.63;;;31.69;38.75
39793;BME280;26080;42.264;24.536;2022-08-02T11:32:44;98936.16;;;31.84;39.53
39793;BME280;26080;42.264;24.536;2022-08-02T11:35:10;98939.22;;;31.94;38.83
39793;BME280;26080;42.264;24.536;2022-08-02T11:37:39;98937.41;;;32.13;35.00
39793;BME280;26080;42.264;24.536;2022-08-02T11:40:16;98926.94;;;32.17;35.70
39793;BME280;26080;42.264;24.536;2022-08-02T11:42:44;98936.03;;;32.29;36.94
39793;BME280;26080;42.264;24.536;2022-08-02T11:45:14;98932.63;;;32.40;36.96
39793;BME280;26080;42.264;24.536;2022-08-02T11:47:49;98918.28;;;32.58;33.49
39793;BME280;26080;42.264;24.536;2022-08-02T11:50:15;98932.25;;;32.80;34.06
39793;BME280;26080;42.264;24.536;2022-08-02T11:52:41;98927.28;;;32.77;35.10
39793;BME280;26080;42.264;24.536;2022-08-02T11:55:09;98929.47;;;32.61;34.31
39793;BME280;26080;42.264;24.536;2022-08-02T11:57:35;98916.50;;;32.45;34.47
39793;BME280;26080;42.264;24.536;2022-08-02T12:00:04;98931.16;;;32.62;32.32
39793;BME280;26080;42.264;24.536;2022-08-02T12:02:46;98931.91;;;32.51;34.10
39793;BME280;26080;42.264;24.536;2022-08-02T12:05:16;98927.91;;;32.54;32.28
39793;BME280;26080;42.264;24.536;2022-08-02T12:07:44;98913.97;;;32.50;35.45
39793;BME280;26080;42.264;24.536;2022-08-02T12:10:14;98921.53;;;32.66;32.42
39793;BME280;26080;42.264;24.536;2022-08-02T12:12:53;98929.34;;;32.81;37.68
39793;BME280;26080;42.264;24.536;2022-08-02T12:15:34;98931.66;;;32.96;34.98
39793;BME280;26080;42.264;24.536;2022-08-02T12:18:01;98914.47;;;33.02;34.27
39793;BME280;26080;42.264;24.536;2022-08-02T12:20:45;98931.22;;;33.36;33.92
39793;BME280;26080;42.264;24.536;2022-08-02T12:23:11;98938.44;;;33.60;32.11
39793;BME280;26080;42.264;24.536;2022-08-02T12:25:37;98918.16;;;33.74;29.60
39793;BME280;26080;42.264;24.536;2022-08-02T12:30:58;98924.44;;;34.16;29.62
39793;BME280;26080;42.264;24.536;2022-08-02T12:33:24;98923.59;;;34.04;33.07
39793;BME280;26080;42.264;24.536;2022-08-02T12:35:51;98910.63;;;33.76;31.20
39793;BME280;26080;42.264;24.536;2022-08-02T12:38:16;98904.19;;;33.59;30.86
39793;BME280;26080;42.264;24.536;2022-08-02T12:40:42;98925.25;;;33.45;33.79
39793;BME280;26080;42.264;24.536;2022-08-02T12:43:16;98927.81;;;33.40;32.26
39793;BME280;26080;42.264;24.536;2022-08-02T12:45:48;98915.06;;;33.59;34.80
39793;BME280;26080;42.264;24.536;2022-08-02T12:48:15;98917.59;;;33.54;33.00
39793;BME280;26080;42.264;24.536;2022-08-02T12:50:42;98912.97;;;33.24;34.03
39793;BME280;26080;42.264;24.536;2022-08-02T12:53:13;98913.94;;;33.12;33.66
39793;BME280;26080;42.264;24.536;2022-08-02T12:58:17;98925.78;;;32.99;35.54
39793;BME280;26080;42.264;24.536;2022-08-02T13:00:54;98925.66;;;32.94;32.12
39793;BME280;26080;42.264;24.536;2022-08-02T13:03:19;98923.06;;;32.99;31.54
39793;BME280;26080;42.264;24.536;2022-08-02T13:05:45;98921.25;;;33.11;31.69
39793;BME280;26080;42.264;24.536;2022-08-02T13:08:11;98914.03;;;33.23;32.05
39793;BME280;26080;42.264;24.536;2022-08-02T13:10:37;98914.47;;;33.39;33.86
39793;BME280;26080;42.264;24.536;2022-08-02T13:13:03;98903.56;;;33.45;32.66
39793;BME280;26080;42.264;24.536;2022-08-02T13:15:28;98909.00;;;33.57;30.48
39793;BME280;26080;42.264;24.536;2022-08-02T13:17:54;98909.16;;;33.62;29.77
39793;BME280;26080;42.264;24.536;2022-08-02T13:20:20;98906.56;;;33.67;29.76